Disclaimer

Please do not use the information listed here in-flight or in-navigation, as they are not provided to us by the airports but are provided by volunteers, so they might be outdated.

Search


Regions


Airport information page

Radio informations:
LE HAVRE TWR - 135.2 MHz
Automatic Terminal Information Service (ATIS) - 126.175 MHz
DEAUVILLE APP - 120.35 MHz

Airport informations:
Latitude: 49° 32' 02.00" N
Longitude: 000° 05' 17.00" E
Elevation: 312 feet - 95 meters
Operating hours: Remarks
Operating agency: Civil government, landing fees and diplomatic clearance may be required
Timezone: UTC+1(+2DT) - Last Sunday in March to last Sunday in October
Fuel: Jet A1, without icing nhibitor.

100/130 MIL Spec, low lead, aviation gasoline (BLUE)

Runway information:
05/23 - 7546 x 130 feet< - >2300 x 40 meters

Recent METARs:
LFOH 172100Z AUTO 09009KT CAVOK 05/01 Q1023 NOSIG
LFOH 172130Z AUTO 08008KT CAVOK 05/01 Q1023 NOSIG
LFOH 172200Z AUTO 08009KT CAVOK 05/01 Q1023

Airport on the map: